createdAt,value
2017-01-01T00:00:58.236Z,99.99
2017-01-01T00:01:58.258Z,99.99
2017-01-01T00:02:58.272Z,99.99
2017-01-01T00:03:58.273Z,99.99
2017-01-01T00:04:58.284Z,99.99
2017-01-01T00:05:58.303Z,99.99
2017-01-01T00:06:58.322Z,99.99
2017-01-01T00:07:58.329Z,99.99
2017-01-01T00:08:58.334Z,99.99
2017-01-01T00:09:58.350Z,99.99
2017-01-01T00:10:58.359Z,99.99
2017-01-01T00:11:58.368Z,99.99
2017-01-01T00:12:58.389Z,99.99
2017-01-01T00:13:58.401Z,99.99
2017-01-01T00:14:58.414Z,99.99
2017-01-01T00:15:58.419Z,99.99
2017-01-01T00:16:58.444Z,99.99
2017-01-01T00:17:58.446Z,99.99
2017-01-01T00:18:58.460Z,99.99
2017-01-01T00:19:58.470Z,99.99
2017-01-01T00:20:58.480Z,99.99
2017-01-01T00:21:58.500Z,99.99
2017-01-01T00:22:58.519Z,99.99
2017-01-01T00:23:58.517Z,99.99
2017-01-01T00:24:58.529Z,99.99
2017-01-01T00:25:58.548Z,99.99
2017-01-01T00:26:58.554Z,99.99
2017-01-01T00:27:58.573Z,99.99
2017-01-01T00:28:58.586Z,99.99
2017-01-01T00:29:58.593Z,99.99
2017-01-01T00:30:58.608Z,99.99
2017-01-01T00:31:58.617Z,99.99
2017-01-01T00:32:58.623Z,99.99
2017-01-01T00:33:58.643Z,99.99
2017-01-01T00:34:58.657Z,99.99
2017-01-01T00:35:58.666Z,99.99
2017-01-01T00:36:58.683Z,99.99
2017-01-01T00:37:58.693Z,99.99
2017-01-01T00:38:58.704Z,99.99
2017-01-01T00:39:58.719Z,99.99
2017-01-01T00:40:58.727Z,99.99
2017-01-01T00:41:58.745Z,99.99
2017-01-01T00:42:58.755Z,99.99
2017-01-01T00:43:58.768Z,99.99
2017-01-01T00:44:58.778Z,99.99
2017-01-01T00:45:58.788Z,99.99
2017-01-01T00:46:58.805Z,99.99
2017-01-01T00:47:58.811Z,99.99
2017-01-01T00:48:58.831Z,99.99
2017-01-01T00:49:58.842Z,99.99
2017-01-01T00:50:58.855Z,99.99
2017-01-01T00:51:58.865Z,99.99
2017-01-01T00:52:58.867Z,99.99
2017-01-01T00:53:58.889Z,99.99
2017-01-01T00:54:58.901Z,99.99
2017-01-01T00:55:58.916Z,99.99
2017-01-01T00:56:58.923Z,99.99
2017-01-01T00:57:58.931Z,99.99
2017-01-01T00:58:58.947Z,99.99
2017-01-01T00:59:58.965Z,99.99
2017-01-01T01:00:58.969Z,99.99
2017-01-01T01:01:58.979Z,99.99
2017-01-01T01:02:58.999Z,99.99
2017-01-01T01:03:59.009Z,99.99
2017-01-01T01:04:59.025Z,99.99
2017-01-01T01:05:59.024Z,99.99
2017-01-01T01:06:59.046Z,99.99
2017-01-01T01:07:59.058Z,99.99
2017-01-01T01:08:59.074Z,99.99
2017-01-01T01:09:59.081Z,99.99
2017-01-01T01:10:59.092Z,99.99
2017-01-01T01:11:59.098Z,99.99
2017-01-01T01:12:59.114Z,99.99
2017-01-01T01:13:59.127Z,99.99
2017-01-01T01:14:59.133Z,99.99
2017-01-01T01:15:59.156Z,99.99
2017-01-01T01:16:59.166Z,99.99
2017-01-01T01:17:59.178Z,99.99
2017-01-01T01:18:59.184Z,99.99
2017-01-01T01:19:59.199Z,99.99
2017-01-01T01:20:59.209Z,99.99
2017-01-01T01:21:59.228Z,99.99
2017-01-01T01:22:59.269Z,99.99
2017-01-01T01:23:59.242Z,99.99
2017-01-01T01:24:59.255Z,99.99
2017-01-01T01:25:59.263Z,99.99
2017-01-01T01:26:59.289Z,99.99
2017-01-01T01:27:59.296Z,99.99
2017-01-01T01:28:59.309Z,99.99
2017-01-01T01:29:59.318Z,99.99
2017-01-01T01:30:59.327Z,99.99
2017-01-01T01:31:59.340Z,99.99
2017-01-01T01:32:59.361Z,99.99
2017-01-01T01:33:59.362Z,99.99
2017-01-01T01:34:59.383Z,99.99
2017-01-01T01:35:59.394Z,99.99
2017-01-01T01:36:59.406Z,99.99
2017-01-01T01:37:59.420Z,99.99
2017-01-01T01:38:59.427Z,99.99
2017-01-01T01:39:59.440Z,99.99
2017-01-01T01:40:59.441Z,99.99
2017-01-01T01:41:59.459Z,99.99
2017-01-01T01:42:59.468Z,99.99
2017-01-01T01:43:59.488Z,99.99
2017-01-01T01:44:59.495Z,99.99
2017-01-01T01:45:59.507Z,99.99
2017-01-01T01:46:59.512Z,99.99
2017-01-01T01:47:59.535Z,99.99
2017-01-01T01:48:59.546Z,99.99
2017-01-01T01:49:59.562Z,99.99
2017-01-01T01:50:59.563Z,99.99
2017-01-01T01:51:59.581Z,99.99
2017-01-01T01:52:59.597Z,99.99
2017-01-01T01:53:59.596Z,99.99
2017-01-01T01:54:59.614Z,99.99
2017-01-01T01:55:59.631Z,99.99
2017-01-01T01:56:59.641Z,99.99
2017-01-01T01:57:59.648Z,99.99
2017-01-01T01:58:59.660Z,99.99
2017-01-01T01:59:59.675Z,99.99
2017-01-01T02:00:59.685Z,99.99
2017-01-01T02:01:59.698Z,99.99
2017-01-01T02:02:59.713Z,99.99
2017-01-01T02:03:59.724Z,99.99
2017-01-01T02:04:59.729Z,99.99
2017-01-01T02:05:59.746Z,99.99
2017-01-01T02:06:59.752Z,99.99
2017-01-01T02:07:59.767Z,99.99
2017-01-01T02:08:59.785Z,99.99
2017-01-01T02:09:59.786Z,99.99
2017-01-01T02:10:59.804Z,99.99
2017-01-01T02:11:59.808Z,99.99
2017-01-01T02:12:59.826Z,99.99
2017-01-01T02:13:59.835Z,99.99
2017-01-01T02:14:59.843Z,99.99
2017-01-01T02:15:59.861Z,99.99
2017-01-01T02:16:59.874Z,99.99
2017-01-01T02:17:59.882Z,99.99
2017-01-01T02:18:59.892Z,99.99
2017-01-01T02:19:59.908Z,99.99
2017-01-01T02:20:59.914Z,99.99
2017-01-01T02:21:59.933Z,99.99
2017-01-01T02:22:59.943Z,99.99
2017-01-01T02:23:59.952Z,99.99
2017-01-01T02:24:59.966Z,99.99
2017-01-01T02:25:59.978Z,99.99
2017-01-01T02:26:59.987Z,99.99
2017-01-01T02:27:59.996Z,99.99
2017-01-01T02:29:00.005Z,99.99
2017-01-01T02:30:00.014Z,99.99
2017-01-01T02:31:00.032Z,99.99
2017-01-01T02:32:00.046Z,99.99
2017-01-01T02:33:00.057Z,99.99
2017-01-01T02:34:00.069Z,99.99
2017-01-01T02:35:00.080Z,99.99
2017-01-01T02:36:00.085Z,99.99
2017-01-01T02:37:00.103Z,99.99
2017-01-01T02:38:00.110Z,99.99
2017-01-01T02:39:00.121Z,99.99
2017-01-01T02:40:00.145Z,99.99
2017-01-01T02:41:00.147Z,99.99
2017-01-01T02:42:00.158Z,99.99
2017-01-01T02:43:00.169Z,99.99
2017-01-01T02:44:00.177Z,99.99
2017-01-01T02:45:00.192Z,99.99
2017-01-01T02:46:00.198Z,99.99
2017-01-01T02:47:00.209Z,99.99
2017-01-01T02:48:00.224Z,99.99
2017-01-01T02:49:00.233Z,99.99
2017-01-01T02:50:00.246Z,99.99
2017-01-01T02:51:00.252Z,99.99
2017-01-01T02:52:00.275Z,99.99
2017-01-01T02:53:00.284Z,99.99
2017-01-01T02:54:00.285Z,99.99
2017-01-01T02:55:00.312Z,99.99
2017-01-01T02:56:00.315Z,99.99
2017-01-01T02:57:00.320Z,99.99
2017-01-01T02:58:00.332Z,99.99
2017-01-01T02:59:00.340Z,99.99
2017-01-01T03:00:00.351Z,99.99
2017-01-01T03:01:00.370Z,99.99
2017-01-01T03:02:00.384Z,99.99
2017-01-01T03:03:00.395Z,99.99
2017-01-01T03:04:00.397Z,99.99
2017-01-01T03:05:00.413Z,99.99
2017-01-01T03:06:00.425Z,99.99
2017-01-01T03:07:00.435Z,99.99
2017-01-01T03:08:00.449Z,99.99
2017-01-01T03:09:00.484Z,99.99
2017-01-01T03:10:00.465Z,99.99
2017-01-01T03:11:00.484Z,99.99
2017-01-01T03:12:00.492Z,99.99
2017-01-01T03:13:00.499Z,99.99
2017-01-01T03:14:00.514Z,99.99
2017-01-01T03:15:00.527Z,99.99
2017-01-01T03:16:00.543Z,99.99
2017-01-01T03:17:00.545Z,99.99
2017-01-01T03:18:00.551Z,99.99
2017-01-01T03:19:00.575Z,99.99
2017-01-01T03:20:00.580Z,99.99
2017-01-01T03:21:00.595Z,99.99
2017-01-01T03:22:00.625Z,99.99
2017-01-01T03:23:00.617Z,99.99
2017-01-01T03:24:00.631Z,99.99
2017-01-01T03:25:00.633Z,99.99
2017-01-01T03:26:00.654Z,99.99
2017-01-01T03:27:00.660Z,99.99
2017-01-01T03:28:00.676Z,99.99
2017-01-01T03:29:00.681Z,99.99
2017-01-01T03:30:00.693Z,99.99
2017-01-01T03:31:00.699Z,99.99
2017-01-01T03:32:00.712Z,99.99
2017-01-01T03:33:00.736Z,99.99
2017-01-01T03:34:00.731Z,99.99
2017-01-01T03:35:00.750Z,99.99
2017-01-01T03:36:00.764Z,99.99
2017-01-01T03:37:00.769Z,99.99
2017-01-01T03:38:00.786Z,99.99
2017-01-01T03:39:00.788Z,99.99
2017-01-01T03:40:00.808Z,99.99
2017-01-01T03:41:00.809Z,99.99
2017-01-01T03:42:00.822Z,99.99
2017-01-01T03:43:00.837Z,99.99
2017-01-01T03:44:00.847Z,99.99
2017-01-01T03:45:00.856Z,99.99
2017-01-01T03:46:00.864Z,99.99
2017-01-01T03:47:00.880Z,99.99
2017-01-01T03:48:00.891Z,99.99
2017-01-01T03:49:00.901Z,99.99
2017-01-01T03:50:00.910Z,99.99
2017-01-01T03:51:00.926Z,99.99
2017-01-01T03:52:00.932Z,99.99
2017-01-01T03:53:00.952Z,99.99
2017-01-01T03:54:00.960Z,99.99
2017-01-01T03:55:00.969Z,99.99
2017-01-01T03:56:00.986Z,99.99
2017-01-01T03:57:00.985Z,99.99
2017-01-01T03:58:01.005Z,99.99
2017-01-01T03:59:01.007Z,99.99
2017-01-01T04:00:01.019Z,99.99
2017-01-01T04:01:15.884Z,99.99
2017-01-01T04:02:01.049Z,99.99
2017-01-01T04:03:01.052Z,99.99
2017-01-01T04:04:01.071Z,99.99
2017-01-01T04:05:01.072Z,99.99
2017-01-01T04:06:01.083Z,99.99
2017-01-01T04:07:01.106Z,99.89
2017-01-01T04:08:01.109Z,99.89
2017-01-01T04:09:01.124Z,99.89
2017-01-01T04:10:01.130Z,99.94
2017-01-01T04:11:01.141Z,99.99
2017-01-01T04:12:01.155Z,99.99
2017-01-01T04:13:01.170Z,99.99
2017-01-01T04:14:01.174Z,99.99
2017-01-01T04:15:01.191Z,99.99
2017-01-01T04:16:01.203Z,99.99
2017-01-01T04:17:01.208Z,99.94
2017-01-01T04:18:01.220Z,99.84
2017-01-01T04:19:01.234Z,99.65
2017-01-01T04:20:01.244Z,99.37
2017-01-01T04:21:01.258Z,99.18
2017-01-01T04:22:01.285Z,98.99
2017-01-01T04:23:01.270Z,99.08
2017-01-01T04:24:01.283Z,99.18
2017-01-01T04:25:01.296Z,99.37
2017-01-01T04:26:01.306Z,99.65
2017-01-01T04:27:01.396Z,99.84
2017-01-01T04:28:01.327Z,99.99
2017-01-01T04:29:01.341Z,99.99
2017-01-01T04:30:01.353Z,99.99
2017-01-01T04:31:01.359Z,99.99
2017-01-01T04:32:01.369Z,99.99
2017-01-01T04:33:01.383Z,99.84
2017-01-01T04:34:01.398Z,99.65
2017-01-01T04:35:01.400Z,99.65
2017-01-01T04:36:01.418Z,99.65
2017-01-01T04:37:01.420Z,99.75
2017-01-01T04:38:01.442Z,99.75
2017-01-01T04:39:01.452Z,99.56
2017-01-01T04:40:01.459Z,99.27
2017-01-01T04:41:01.472Z,98.99
2017-01-01T04:42:01.478Z,98.9
2017-01-01T04:43:01.493Z,98.9
2017-01-01T04:44:01.499Z,98.8
2017-01-01T04:45:01.520Z,98.71
2017-01-01T04:46:01.526Z,98.71
2017-01-01T04:47:01.534Z,98.71
2017-01-01T04:48:01.544Z,98.71
2017-01-01T04:49:01.550Z,98.71
2017-01-01T04:50:01.572Z,98.71
2017-01-01T04:51:01.583Z,98.71
2017-01-01T04:52:01.595Z,98.61
2017-01-01T04:53:01.595Z,98.52
2017-01-01T04:54:01.607Z,98.52
2017-01-01T04:55:01.628Z,98.33
2017-01-01T04:56:01.635Z,97.96
2017-01-01T04:58:01.652Z,97.48
2017-01-01T04:59:01.673Z,97.15
2017-01-01T05:00:01.675Z,96.59
2017-01-01T05:01:01.684Z,95.92
2017-01-01T05:02:01.700Z,95.26
2017-01-01T05:03:01.717Z,94.7
2017-01-01T05:04:01.720Z,94.41
2017-01-01T05:05:01.729Z,94.13
2017-01-01T05:06:01.745Z,93.94
2017-01-01T05:07:01.758Z,93.84
2017-01-01T05:08:01.765Z,93.75
2017-01-01T05:09:01.780Z,93.66
2017-01-01T05:10:01.790Z,93.75
2017-01-01T05:11:01.796Z,93.84
2017-01-01T05:12:01.812Z,93.56
2017-01-01T05:13:01.825Z,93.37
2017-01-01T05:14:01.830Z,93.18
2017-01-01T05:15:01.845Z,93.18
2017-01-01T05:16:01.856Z,93.18
2017-01-01T05:17:01.864Z,93.37
2017-01-01T05:18:01.877Z,93.37
2017-01-01T05:19:01.881Z,93.37
2017-01-01T05:20:01.897Z,93.37
2017-01-01T05:21:01.909Z,93.28
2017-01-01T05:22:01.919Z,93.18
2017-01-01T05:23:01.933Z,93.18
2017-01-01T05:24:01.940Z,93.18
2017-01-01T05:25:01.959Z,93.09
2017-01-01T05:26:01.967Z,92.99
2017-01-01T05:27:01.977Z,93.09
2017-01-01T05:28:01.983Z,93.18
2017-01-01T05:29:01.999Z,93.18
2017-01-01T05:30:02.015Z,93.37
2017-01-01T05:31:02.020Z,93.75
2017-01-01T05:32:02.033Z,93.94
2017-01-01T05:33:02.042Z,93.94
2017-01-01T05:34:02.053Z,93.84
2017-01-01T05:35:02.070Z,93.56
2017-01-01T05:36:02.074Z,93.37
2017-01-01T05:37:02.092Z,93.09
2017-01-01T05:38:02.092Z,93.09
2017-01-01T05:39:02.110Z,93.09
2017-01-01T05:40:02.118Z,92.99
2017-01-01T05:41:02.136Z,92.99
2017-01-01T05:42:02.146Z,92.99
2017-01-01T05:43:02.162Z,92.99
2017-01-01T05:44:02.165Z,92.99
2017-01-01T05:45:02.177Z,92.9
2017-01-01T05:46:02.192Z,92.71
2017-01-01T05:47:02.195Z,92.43
2017-01-01T05:48:02.210Z,92.14
2017-01-01T05:49:02.227Z,91.96
2017-01-01T05:50:02.230Z,91.67
2017-01-01T05:51:02.272Z,91.48
2017-01-01T05:52:02.253Z,91.01
2017-01-01T05:53:02.266Z,90.44
2017-01-01T05:54:02.365Z,90.06
2017-01-01T05:55:02.291Z,89.97
2017-01-01T05:56:02.297Z,89.78
2017-01-01T05:57:02.317Z,89.69
2017-01-01T05:58:02.329Z,89.5
2017-01-01T05:59:02.342Z,89.4
2017-01-01T06:00:02.356Z,89.4
2017-01-01T06:01:02.362Z,89.31
2017-01-01T06:02:02.370Z,89.12
2017-01-01T06:03:02.376Z,89.12
2017-01-01T06:04:02.449Z,89.12
2017-01-01T06:05:02.404Z,88.93
2017-01-01T06:06:02.414Z,89.03
2017-01-01T06:07:02.428Z,88.84
2017-01-01T06:08:02.435Z,88.55
2017-01-01T06:09:02.458Z,88.46
2017-01-01T06:10:02.459Z,88.17
2017-01-01T06:11:02.471Z,87.89
2017-01-01T06:12:02.485Z,87.79
2017-01-01T06:13:02.492Z,87.79
2017-01-01T06:14:02.501Z,87.79
2017-01-01T06:15:02.515Z,87.7
2017-01-01T06:16:02.530Z,87.61
2017-01-01T06:17:02.543Z,87.51
2017-01-01T06:18:02.552Z,87.32
2017-01-01T06:19:02.635Z,87.23
2017-01-01T06:20:02.570Z,87.23
2017-01-01T06:21:02.588Z,87.32
2017-01-01T06:22:02.679Z,87.23
2017-01-01T06:23:02.605Z,87.13
2017-01-01T06:24:02.641Z,86.94
2017-01-01T06:25:02.633Z,86.85
2017-01-01T06:26:02.646Z,86.85
2017-01-01T06:27:02.654Z,86.85
2017-01-01T06:28:02.687Z,86.76
2017-01-01T06:29:02.676Z,86.38
2017-01-01T06:30:02.681Z,86
2017-01-01T06:31:02.694Z,85.81
2017-01-01T06:32:02.711Z,85.81
2017-01-01T06:33:02.718Z,85.72
2017-01-01T06:34:02.733Z,85.72
2017-01-01T06:35:02.817Z,85.76
2017-01-01T06:36:02.755Z,85.76
2017-01-01T06:37:02.766Z,85.76
2017-01-01T06:38:02.784Z,85.57
2017-01-01T06:39:02.783Z,85.47
2017-01-01T06:40:02.801Z,85.47
2017-01-01T06:41:02.810Z,85.38
2017-01-01T06:42:02.825Z,85.38
2017-01-01T06:43:02.838Z,85.38
2017-01-01T06:44:02.845Z,85.19
2017-01-01T06:45:02.861Z,85.1
2017-01-01T06:46:02.878Z,85.1
2017-01-01T06:47:02.883Z,84.91
2017-01-01T06:48:02.893Z,85
2017-01-01T06:49:02.910Z,85.1
2017-01-01T06:50:02.910Z,85.28
2017-01-01T06:51:02.941Z,85.38
2017-01-01T06:52:02.940Z,85.57
2017-01-01T06:53:02.949Z,85.66
2017-01-01T06:54:02.967Z,85.72
2017-01-01T06:55:02.972Z,85.81
2017-01-01T06:56:02.982Z,86
2017-01-01T06:57:02.998Z,86.1
2017-01-01T06:58:03.004Z,86.19
2017-01-01T06:59:03.020Z,86.29
2017-01-01T07:00:03.025Z,86.38
2017-01-01T07:01:03.042Z,86.38
2017-01-01T07:02:03.064Z,86.38
2017-01-01T07:03:03.069Z,86.38
2017-01-01T07:04:03.078Z,86.47
2017-01-01T07:05:03.095Z,86.47
2017-01-01T07:06:03.099Z,86.57
2017-01-01T07:07:03.116Z,86.66
2017-01-01T07:08:03.126Z,86.76
2017-01-01T07:09:03.143Z,86.8
2017-01-01T07:10:03.152Z,86.9
2017-01-01T07:11:03.157Z,86.9
2017-01-01T07:12:03.185Z,86.9
2017-01-01T07:13:03.266Z,86.8
2017-01-01T07:14:03.196Z,86.9
2017-01-01T07:15:03.202Z,86.9
2017-01-01T07:16:03.215Z,87.08
2017-01-01T07:17:03.230Z,87.08
2017-01-01T07:18:03.236Z,87.18
2017-01-01T07:19:03.253Z,87.27
2017-01-01T07:20:03.266Z,87.37
2017-01-01T07:21:03.279Z,87.46
2017-01-01T07:22:03.320Z,87.65
2017-01-01T07:23:03.297Z,87.74
2017-01-01T07:24:03.310Z,87.74
2017-01-01T07:25:03.320Z,87.74
2017-01-01T07:26:03.344Z,87.84
2017-01-01T07:27:03.339Z,87.93
2017-01-01T07:28:03.363Z,88.03
2017-01-01T07:29:03.369Z,88.03
2017-01-01T07:30:03.382Z,88.12
2017-01-01T07:31:03.397Z,88.12
2017-01-01T07:32:03.403Z,88.22
2017-01-01T07:33:03.413Z,88.31
2017-01-01T07:34:03.430Z,88.41
2017-01-01T07:35:03.439Z,88.5
2017-01-01T07:36:03.447Z,88.5
2017-01-01T07:37:03.464Z,88.5
2017-01-01T07:38:03.475Z,88.6
2017-01-01T07:39:03.487Z,88.6
2017-01-01T07:40:03.503Z,88.6
2017-01-01T07:41:03.513Z,88.6
2017-01-01T07:42:03.520Z,88.69
2017-01-01T07:43:03.535Z,88.69
2017-01-01T07:44:03.547Z,88.79
2017-01-01T07:45:03.562Z,88.79
2017-01-01T07:46:03.569Z,88.79
2017-01-01T07:47:03.579Z,88.79
2017-01-01T07:48:03.596Z,88.88
2017-01-01T07:49:03.605Z,88.98
2017-01-01T07:50:03.611Z,89.07
2017-01-01T07:51:03.631Z,89.17
2017-01-01T07:52:03.646Z,89.26
2017-01-01T07:53:03.649Z,89.36
2017-01-01T07:54:03.670Z,89.54
2017-01-01T07:55:03.671Z,89.64
2017-01-01T07:56:03.688Z,89.64
2017-01-01T07:57:03.699Z,89.64
2017-01-01T07:58:03.718Z,89.64
2017-01-01T07:59:03.725Z,89.54
2017-01-01T08:00:03.740Z,89.45
2017-01-01T08:01:03.753Z,89.45
2017-01-01T08:02:03.758Z,89.54
2017-01-01T08:03:03.771Z,89.45
2017-01-01T08:04:03.781Z,89.36
2017-01-01T08:05:03.796Z,89.36
2017-01-01T08:06:03.816Z,89.4
2017-01-01T08:07:03.822Z,89.31
2017-01-01T08:08:03.829Z,89.21
2017-01-01T08:09:03.841Z,89.21
2017-01-01T08:10:03.858Z,89.02
2017-01-01T08:11:03.871Z,89.02
2017-01-01T08:12:03.876Z,89.02
2017-01-01T08:13:03.896Z,89.21
2017-01-01T08:14:03.909Z,89.21
2017-01-01T08:15:03.909Z,89.21
2017-01-01T08:16:03.931Z,89.12
2017-01-01T08:17:03.940Z,88.93
2017-01-01T08:18:03.951Z,88.74
2017-01-01T08:19:03.960Z,88.74
2017-01-01T08:20:03.970Z,88.83
2017-01-01T08:21:03.985Z,88.74
2017-01-01T08:22:03.998Z,88.83
2017-01-01T08:23:04.005Z,88.93
2017-01-01T08:24:04.024Z,89.12
2017-01-01T08:25:04.036Z,89.21
2017-01-01T08:26:04.041Z,89.4
2017-01-01T08:27:04.051Z,89.4
2017-01-01T08:28:04.068Z,89.4
2017-01-01T08:29:04.076Z,89.21
2017-01-01T08:30:04.093Z,89.21
2017-01-01T08:31:04.099Z,89.12
2017-01-01T08:32:04.114Z,89.12
2017-01-01T08:33:04.129Z,89.02
2017-01-01T08:34:04.142Z,88.93
2017-01-01T08:35:04.146Z,88.83
2017-01-01T08:36:04.155Z,88.64
2017-01-01T08:37:04.174Z,88.17
2017-01-01T08:38:04.180Z,87.88
2017-01-01T08:39:04.198Z,87.88
2017-01-01T08:40:04.211Z,87.7
2017-01-01T08:41:04.215Z,87.79
2017-01-01T08:42:04.233Z,87.79
2017-01-01T08:43:04.241Z,87.79
2017-01-01T08:44:04.254Z,87.79
2017-01-01T08:45:04.274Z,87.88
2017-01-01T08:46:04.283Z,87.88
2017-01-01T08:47:04.292Z,87.98
2017-01-01T08:48:04.303Z,87.98
2017-01-01T08:49:04.315Z,88.07
2017-01-01T08:50:04.331Z,88.17
2017-01-01T08:51:04.337Z,88.07
2017-01-01T08:52:04.349Z,87.98
2017-01-01T08:53:04.359Z,88.07
2017-01-01T08:54:04.379Z,87.98
2017-01-01T08:55:04.401Z,87.98
2017-01-01T08:56:04.404Z,87.98
2017-01-01T08:57:04.410Z,87.98
2017-01-01T08:58:04.423Z,88.07
2017-01-01T08:59:04.432Z,88.07
2017-01-01T09:00:04.456Z,88.07
2017-01-01T09:01:04.466Z,88.07
2017-01-01T09:02:04.470Z,87.98
2017-01-01T09:03:04.480Z,87.98
2017-01-01T09:04:04.496Z,87.98
2017-01-01T09:05:04.509Z,88.07
2017-01-01T09:06:04.529Z,88.17
2017-01-01T09:07:04.538Z,88.26
2017-01-01T09:08:04.548Z,88.26
2017-01-01T09:09:04.560Z,88.45
2017-01-01T09:10:04.569Z,88.55
2017-01-01T09:11:04.581Z,88.64
2017-01-01T09:12:04.592Z,88.64
2017-01-01T09:13:04.603Z,88.74
2017-01-01T09:14:04.621Z,88.74
2017-01-01T09:15:04.635Z,88.83
2017-01-01T09:16:04.640Z,88.74
2017-01-01T09:17:04.659Z,88.83
2017-01-01T09:18:04.665Z,88.93
2017-01-01T09:19:04.679Z,89.02
2017-01-01T09:20:04.694Z,89.21
2017-01-01T09:21:04.713Z,89.21
2017-01-01T09:22:04.713Z,89.21
2017-01-01T09:23:04.723Z,89.31
2017-01-01T09:24:04.742Z,89.4
2017-01-01T09:25:04.758Z,89.5
2017-01-01T09:26:04.775Z,89.69
2017-01-01T09:27:04.781Z,89.78
2017-01-01T09:28:04.796Z,89.92
2017-01-01T09:29:04.805Z,90.01
2017-01-01T09:30:04.824Z,90.01
2017-01-01T09:31:04.820Z,90.01
2017-01-01T09:32:04.836Z,90.11
2017-01-01T09:33:04.852Z,90.2
2017-01-01T09:34:04.868Z,90.2
2017-01-01T09:35:04.883Z,90.3
2017-01-01T09:36:04.891Z,90.39
2017-01-01T09:37:04.906Z,90.58
2017-01-01T09:38:04.913Z,90.77
2017-01-01T09:39:04.931Z,90.86
2017-01-01T09:40:04.941Z,91.05
2017-01-01T09:41:04.954Z,91.24
2017-01-01T09:42:04.966Z,91.43
2017-01-01T09:43:04.980Z,91.72
2017-01-01T09:44:04.988Z,92
2017-01-01T09:45:05.007Z,92.19
2017-01-01T09:46:05.013Z,92.47
2017-01-01T09:47:05.021Z,92.76
2017-01-01T09:48:05.040Z,93.04
2017-01-01T09:49:05.048Z,93.13
2017-01-01T09:50:05.058Z,93.23
2017-01-01T09:51:05.075Z,93.42
2017-01-01T09:52:05.093Z,93.61
2017-01-01T09:53:05.097Z,93.7
2017-01-01T09:54:05.115Z,93.89
2017-01-01T09:55:05.130Z,93.99
2017-01-01T09:56:05.131Z,94.18
2017-01-01T09:57:05.156Z,94.37
2017-01-01T09:58:05.169Z,94.46
2017-01-01T09:59:05.180Z,94.74
2017-01-01T10:00:05.242Z,94.84
2017-01-01T10:01:05.207Z,94.93
2017-01-01T10:02:05.220Z,95.03
2017-01-01T10:03:05.225Z,95.12
2017-01-01T10:04:05.241Z,95.12
2017-01-01T10:05:05.245Z,95.21
2017-01-01T10:06:05.265Z,95.21
2017-01-01T10:07:05.281Z,95.21
2017-01-01T10:08:05.292Z,95.31
2017-01-01T10:09:05.304Z,95.31
2017-01-01T10:10:05.312Z,95.31
2017-01-01T10:11:05.330Z,95.31
2017-01-01T10:12:05.335Z,95.31
2017-01-01T10:13:05.354Z,95.21
2017-01-01T10:14:05.368Z,95.12
2017-01-01T10:15:05.374Z,94.93
2017-01-01T10:16:05.392Z,94.84
2017-01-01T10:17:05.402Z,94.65
2017-01-01T10:18:05.415Z,94.56
2017-01-01T10:19:05.424Z,94.46
2017-01-01T10:20:05.445Z,94.27
2017-01-01T10:21:05.450Z,94.27
2017-01-01T10:22:05.462Z,94.18
2017-01-01T10:23:05.482Z,94.08
2017-01-01T10:24:05.487Z,94.08
2017-01-01T10:25:05.509Z,94.18
2017-01-01T10:26:05.513Z,94.08
2017-01-01T10:27:05.529Z,93.99
2017-01-01T10:28:05.538Z,93.7
2017-01-01T10:29:05.552Z,93.51
2017-01-01T10:30:05.568Z,93.42
2017-01-01T10:31:05.576Z,93.13
2017-01-01T10:32:05.590Z,92.94
2017-01-01T10:33:05.603Z,92.85
2017-01-01T10:34:05.619Z,92.61
2017-01-01T10:35:05.627Z,92.24
2017-01-01T10:36:05.642Z,91.48
2017-01-01T10:37:05.652Z,90.53
2017-01-01T10:38:05.670Z,88.92
2017-01-01T10:39:05.684Z,87.78
2017-01-01T10:40:05.701Z,87.12
2017-01-01T10:41:05.706Z,86.55
2017-01-01T10:42:05.718Z,86.36
2017-01-01T10:43:05.730Z,86.08
2017-01-01T10:44:05.742Z,85.89
2017-01-01T10:45:05.766Z,85.8
2017-01-01T10:46:05.771Z,85.32
2017-01-01T10:47:05.787Z,84.47
2017-01-01T10:48:05.793Z,84.19
2017-01-01T10:49:05.809Z,83.81
2017-01-01T10:50:05.826Z,83.43
2017-01-01T10:51:05.839Z,82.95
2017-01-01T10:52:05.854Z,82.33
2017-01-01T10:53:05.857Z,81.76
2017-01-01T10:54:05.883Z,81.57
2017-01-01T10:55:05.892Z,81.29
2017-01-01T10:56:05.908Z,81.01
2017-01-01T10:57:05.921Z,81.01
2017-01-01T10:58:05.929Z,81.01
2017-01-01T10:59:05.949Z,80.82
2017-01-01T11:00:05.959Z,80.68
2017-01-01T11:01:05.969Z,80.58
2017-01-01T11:02:05.978Z,80.3
2017-01-01T11:03:05.994Z,80.4
2017-01-01T11:04:06.015Z,80.58
2017-01-01T11:05:06.027Z,80.58
2017-01-01T11:06:06.123Z,80.68
2017-01-01T11:07:06.055Z,80.68
2017-01-01T11:08:06.064Z,80.58
2017-01-01T11:09:06.079Z,80.58
2017-01-01T11:10:06.085Z,80.49
2017-01-01T11:11:06.096Z,80.49
2017-01-01T11:12:06.125Z,80.68
2017-01-01T11:13:06.134Z,80.87
2017-01-01T11:14:06.148Z,80.58
2017-01-01T11:15:06.164Z,80.4
2017-01-01T11:16:06.168Z,80.4
2017-01-01T11:17:06.183Z,80.3
2017-01-01T11:18:06.193Z,80.4
2017-01-01T11:19:06.208Z,80.4
2017-01-01T11:20:06.218Z,80.4
2017-01-01T11:21:06.239Z,80.49
2017-01-01T11:22:06.246Z,80.58
2017-01-01T11:23:06.262Z,80.77
2017-01-01T11:24:06.270Z,80.93
2017-01-01T11:25:06.291Z,81.12
2017-01-01T11:26:06.298Z,81.02
2017-01-01T11:27:06.316Z,81.12
2017-01-01T11:28:06.357Z,81.21
2017-01-01T11:29:06.349Z,81.3
2017-01-01T11:30:06.363Z,81.21
2017-01-01T11:31:06.368Z,81.3
2017-01-01T11:32:06.385Z,81.3
2017-01-01T11:33:06.390Z,81.49
2017-01-01T11:34:06.402Z,81.49
2017-01-01T11:35:06.490Z,81.4
2017-01-01T11:36:06.432Z,81.21
2017-01-01T11:37:06.453Z,81.12
2017-01-01T11:38:06.465Z,81.21
2017-01-01T11:39:06.468Z,81.21
2017-01-01T11:40:06.487Z,81.12
2017-01-01T11:41:06.494Z,81.12
2017-01-01T11:42:06.507Z,81.12
2017-01-01T11:43:06.529Z,81.12
2017-01-01T11:44:06.535Z,81.12
2017-01-01T11:45:06.552Z,81.12
2017-01-01T11:46:06.566Z,81.15
2017-01-01T11:47:06.579Z,80.96
2017-01-01T11:48:06.659Z,80.87
2017-01-01T11:49:06.599Z,80.74
2017-01-01T11:50:06.612Z,80.83
2017-01-01T11:51:06.626Z,80.93
2017-01-01T11:52:06.647Z,80.93
2017-01-01T11:53:06.649Z,80.93
2017-01-01T11:54:06.665Z,81.02
2017-01-01T11:55:06.681Z,81.12
2017-01-01T11:56:06.693Z,81.21
2017-01-01T11:57:06.707Z,81.12
2017-01-01T11:58:06.724Z,81.02
2017-01-01T11:59:06.730Z,80.93
2017-01-01T12:00:06.751Z,80.83
2017-01-01T12:01:06.760Z,80.83
2017-01-01T12:02:06.771Z,80.93
2017-01-01T12:03:06.789Z,80.93
2017-01-01T12:04:06.794Z,80.93
2017-01-01T12:05:06.808Z,80.83
2017-01-01T12:06:06.840Z,80.93
2017-01-01T12:07:06.840Z,80.93
2017-01-01T12:08:06.847Z,81.02
2017-01-01T12:09:06.870Z,81.02
2017-01-01T12:10:06.882Z,80.93
2017-01-01T12:11:06.886Z,81.02
2017-01-01T12:12:06.905Z,81.02
2017-01-01T12:13:06.915Z,81.02
2017-01-01T12:14:06.923Z,81.02
2017-01-01T12:15:06.941Z,81.02
2017-01-01T12:16:06.949Z,81.21
2017-01-01T12:17:06.965Z,81.49
2017-01-01T12:18:06.982Z,81.59
2017-01-01T12:19:06.992Z,81.49
2017-01-01T12:20:07.006Z,81.49
2017-01-01T12:21:07.021Z,81.4
2017-01-01T12:22:07.034Z,81.3
2017-01-01T12:23:07.045Z,81.12
2017-01-01T12:24:07.053Z,80.93
2017-01-01T12:25:07.073Z,80.74
2017-01-01T12:26:07.076Z,80.74
2017-01-01T12:27:07.100Z,80.74
2017-01-01T12:28:07.113Z,80.74
2017-01-01T12:29:07.119Z,80.93
2017-01-01T12:30:07.134Z,81.02
2017-01-01T12:31:07.149Z,81.02
2017-01-01T12:32:07.154Z,80.93
2017-01-01T12:33:07.175Z,80.55
2017-01-01T12:34:07.187Z,80.64
2017-01-01T12:35:07.203Z,80.74
2017-01-01T12:36:07.209Z,80.83
2017-01-01T12:37:07.222Z,80.83
2017-01-01T12:38:07.246Z,80.93
2017-01-01T12:39:07.251Z,80.93
2017-01-01T12:40:07.285Z,80.93
2017-01-01T12:41:07.271Z,80.74
2017-01-01T12:42:07.288Z,80.74
2017-01-01T12:43:07.304Z,80.64
2017-01-01T12:44:07.316Z,80.74
2017-01-01T12:45:07.325Z,80.74
2017-01-01T12:46:07.336Z,80.93
2017-01-01T12:47:07.355Z,81.12
2017-01-01T12:48:07.364Z,81.02
2017-01-01T12:49:07.370Z,81.12
2017-01-01T12:50:07.394Z,81.21
2017-01-01T12:51:07.399Z,81.21
2017-01-01T12:52:07.413Z,81.21
2017-01-01T12:53:07.431Z,81.02
2017-01-01T12:54:07.439Z,80.93
2017-01-01T12:55:07.458Z,80.93
2017-01-01T12:56:07.464Z,80.93